createdAt,value
2018-09-20T00:01:49.916Z,19.30
2018-09-20T00:04:54.218Z,19.20
2018-09-20T00:08:04.839Z,19.20
2018-09-20T00:11:09.643Z,19.20
2018-09-20T00:14:14.657Z,19.20
2018-09-20T00:17:18.984Z,19.20
2018-09-20T00:20:23.885Z,19.10
2018-09-20T00:23:28.365Z,19.10
2018-09-20T00:26:32.699Z,19.00
2018-09-20T00:29:37.006Z,19.00
2018-09-20T00:32:41.189Z,19.00
2018-09-20T00:35:45.523Z,19.00
2018-09-20T00:38:49.887Z,19.00
2018-09-20T00:41:54.249Z,18.90
2018-09-20T00:44:58.499Z,18.90
2018-09-20T00:48:02.851Z,18.90
2018-09-20T00:51:07.167Z,18.80
2018-09-20T00:54:11.631Z,18.80
2018-09-20T00:57:15.660Z,18.80
2018-09-20T01:00:19.812Z,18.70
2018-09-20T01:03:24.130Z,18.70
2018-09-20T01:06:28.314Z,18.70
2018-09-20T01:09:32.562Z,18.70
2018-09-20T01:12:36.784Z,18.70
2018-09-20T01:15:41.075Z,18.70
2018-09-20T01:18:45.415Z,18.70
2018-09-20T01:21:49.538Z,18.70
2018-09-20T01:24:53.873Z,18.70
2018-09-20T01:27:58.363Z,18.70
2018-09-20T01:31:02.707Z,18.60
2018-09-20T01:34:07.054Z,18.70
2018-09-20T01:37:11.482Z,18.60
2018-09-20T01:40:15.726Z,18.60
2018-09-20T01:43:20.363Z,18.60
2018-09-20T01:46:24.712Z,18.60
2018-09-20T01:49:28.712Z,18.60
2018-09-20T01:52:33.072Z,18.60
2018-09-20T01:55:37.501Z,18.60
2018-09-20T01:58:41.752Z,18.60
2018-09-20T02:01:45.919Z,18.60
2018-09-20T02:04:49.840Z,18.50
2018-09-20T02:07:53.733Z,18.50
2018-09-20T02:10:57.875Z,18.50
2018-09-20T02:14:02.358Z,18.50
2018-09-20T02:17:06.683Z,18.40
2018-09-20T02:20:10.950Z,18.50
2018-09-20T02:23:15.368Z,18.40
2018-09-20T02:26:19.680Z,18.40
2018-09-20T02:29:24.130Z,18.40
2018-09-20T02:32:35.025Z,18.30
2018-09-20T02:35:39.438Z,18.30
2018-09-20T02:38:43.775Z,18.30
2018-09-20T02:41:48.197Z,18.30
2018-09-20T02:44:52.358Z,18.30
2018-09-20T02:47:56.489Z,18.30
2018-09-20T02:51:00.814Z,18.40
2018-09-20T02:54:05.176Z,18.40
2018-09-20T02:57:09.470Z,18.30
2018-09-20T03:00:13.868Z,18.30
2018-09-20T03:03:18.140Z,18.30
2018-09-20T03:06:22.783Z,18.30
2018-09-20T03:09:27.097Z,18.30
2018-09-20T03:12:31.328Z,18.20
2018-09-20T03:15:35.937Z,18.20
2018-09-20T03:18:40.278Z,18.20
2018-09-20T03:21:44.609Z,18.20
2018-09-20T03:24:48.780Z,18.10
2018-09-20T03:27:53.050Z,18.10
2018-09-20T03:30:57.346Z,18.10
2018-09-20T03:34:01.590Z,18.10
2018-09-20T03:37:06.042Z,18.00
2018-09-20T03:40:10.322Z,18.10
2018-09-20T03:43:14.651Z,18.00
2018-09-20T03:46:18.971Z,18.00
2018-09-20T03:49:23.285Z,18.00
2018-09-20T03:52:27.627Z,18.00
2018-09-20T03:55:32.034Z,17.90
2018-09-20T03:58:36.313Z,17.80
2018-09-20T04:01:40.542Z,17.70
2018-09-20T04:04:44.750Z,17.70
2018-09-20T04:07:48.909Z,17.70
2018-09-20T04:10:53.189Z,17.70
2018-09-20T04:13:57.462Z,17.70
2018-09-20T04:17:01.715Z,17.60
2018-09-20T04:20:06.598Z,17.60
2018-09-20T04:23:11.062Z,17.60
2018-09-20T04:26:15.434Z,17.50
2018-09-20T04:29:19.887Z,17.60
2018-09-20T04:32:24.207Z,17.50
2018-09-20T04:35:28.529Z,17.50
2018-09-20T04:38:32.894Z,17.50
2018-09-20T04:41:37.386Z,17.50
2018-09-20T04:44:41.726Z,17.50
2018-09-20T04:47:46.137Z,17.50
2018-09-20T04:50:50.756Z,17.50
2018-09-20T04:53:54.883Z,17.50
2018-09-20T04:56:59.090Z,17.50
2018-09-20T05:00:03.506Z,17.60
2018-09-20T05:03:07.644Z,17.50
2018-09-20T05:06:12.487Z,17.60
2018-09-20T05:09:16.809Z,17.60
2018-09-20T05:12:21.075Z,17.60
2018-09-20T05:15:25.221Z,17.70
2018-09-20T05:18:29.648Z,17.70
2018-09-20T05:21:34.005Z,17.70
2018-09-20T05:24:38.309Z,17.80
2018-09-20T05:27:42.540Z,17.80
2018-09-20T05:30:46.385Z,17.90
2018-09-20T05:33:50.393Z,17.90
2018-09-20T05:36:54.340Z,17.80
2018-09-20T05:39:58.589Z,17.80
2018-09-20T05:43:03.647Z,17.90
2018-09-20T05:46:08.062Z,18.00
2018-09-20T05:49:12.741Z,18.00
2018-09-20T05:52:17.005Z,18.00
2018-09-20T05:55:21.318Z,18.20
2018-09-20T05:58:25.601Z,18.20
2018-09-20T06:01:29.745Z,18.20
2018-09-20T06:04:33.985Z,18.30
2018-09-20T06:07:38.418Z,18.40
2018-09-20T06:10:42.631Z,18.50
2018-09-20T06:13:47.094Z,18.60
2018-09-20T06:16:51.415Z,18.60
2018-09-20T06:19:55.931Z,18.70
2018-09-20T06:23:00.165Z,18.80
2018-09-20T06:26:04.450Z,18.90
2018-09-20T06:29:08.795Z,19.10
2018-09-20T06:32:12.993Z,19.30
2018-09-20T06:35:17.245Z,19.50
2018-09-20T06:38:21.537Z,19.70
2018-09-20T06:41:26.001Z,20.70
2018-09-20T06:44:30.484Z,22.60
2018-09-20T06:47:34.909Z,24.40
2018-09-20T06:50:39.298Z,25.10
2018-09-20T06:53:43.767Z,24.80
2018-09-20T06:56:47.851Z,24.40
2018-09-20T06:59:52.618Z,25.00
2018-09-20T07:02:56.991Z,27.10
2018-09-20T07:06:01.538Z,28.90
2018-09-20T07:09:09.969Z,30.80
2018-09-20T07:12:14.383Z,32.60
2018-09-20T07:15:18.601Z,33.60
2018-09-20T07:18:22.907Z,34.60
2018-09-20T07:21:27.190Z,35.70
2018-09-20T07:24:32.021Z,36.50
2018-09-20T07:27:36.340Z,37.00
2018-09-20T07:30:40.598Z,37.60
2018-09-20T07:33:44.765Z,38.40
2018-09-20T07:36:49.170Z,38.80
2018-09-20T07:39:53.475Z,39.20
2018-09-20T07:42:58.438Z,39.20
2018-09-20T07:46:02.548Z,39.80
2018-09-20T07:49:06.782Z,41.00
2018-09-20T07:52:11.204Z,42.10
2018-09-20T07:55:15.404Z,43.30
2018-09-20T07:58:19.860Z,43.70
2018-09-20T08:01:24.305Z,44.70
2018-09-20T08:04:28.654Z,45.40
2018-09-20T08:07:33.020Z,46.00
2018-09-20T08:10:37.326Z,46.30
2018-09-20T08:13:41.421Z,46.90
2018-09-20T08:16:45.821Z,47.50
2018-09-20T08:19:50.050Z,48.00
2018-09-20T08:22:54.459Z,48.90
2018-09-20T08:25:58.582Z,49.50
2018-09-20T08:29:02.873Z,49.80
2018-09-20T08:32:07.421Z,50.10
2018-09-20T08:35:11.625Z,50.60
2018-09-20T08:38:16.042Z,50.00
2018-09-20T08:41:20.244Z,49.80
2018-09-20T08:44:25.252Z,50.40
2018-09-20T08:47:29.704Z,51.10
2018-09-20T08:50:34.197Z,51.40
2018-09-20T08:53:38.274Z,52.20
2018-09-20T08:56:42.502Z,52.70
2018-09-20T08:59:46.804Z,52.60
2018-09-20T09:02:51.165Z,52.80
2018-09-20T09:05:55.024Z,52.90
2018-09-20T09:08:59.672Z,52.70
2018-09-20T09:12:03.820Z,53.10
2018-09-20T09:15:08.386Z,53.20
2018-09-20T09:18:12.679Z,53.60
2018-09-20T09:21:16.730Z,53.90
2018-09-20T09:24:21.091Z,54.70
2018-09-20T09:27:25.227Z,55.20
2018-09-20T09:30:29.464Z,55.60
2018-09-20T09:33:33.768Z,55.60
2018-09-20T09:36:37.644Z,56.10
2018-09-20T09:39:41.543Z,56.50
2018-09-20T09:42:45.353Z,56.70
2018-09-20T09:45:49.370Z,56.70
2018-09-20T09:48:53.297Z,56.80
2018-09-20T09:51:57.138Z,56.60
2018-09-20T09:55:01.042Z,57.20
2018-09-20T09:58:05.237Z,57.40
2018-09-20T10:01:09.698Z,57.70
2018-09-20T10:04:13.991Z,57.30
2018-09-20T10:07:18.302Z,57.80
2018-09-20T10:10:22.180Z,56.90
2018-09-20T10:13:26.667Z,56.70
2018-09-20T10:16:30.715Z,56.60
2018-09-20T10:19:34.990Z,54.70
2018-09-20T10:22:39.340Z,53.10
2018-09-20T10:25:43.714Z,51.90
2018-09-20T10:28:48.211Z,50.00
2018-09-20T10:31:52.415Z,48.40
2018-09-20T10:34:56.321Z,46.90
2018-09-20T10:38:00.210Z,45.90
2018-09-20T10:41:04.137Z,44.80
2018-09-20T10:44:08.175Z,44.00
2018-09-20T10:47:12.420Z,43.30
2018-09-20T10:50:16.705Z,42.90
2018-09-20T10:53:20.941Z,42.50
2018-09-20T10:56:25.332Z,42.40
2018-09-20T10:59:29.979Z,42.10
2018-09-20T11:02:34.225Z,41.30
2018-09-20T11:05:38.279Z,41.30
2018-09-20T11:08:42.712Z,41.40
2018-09-20T11:11:47.025Z,41.40
2018-09-20T11:14:51.948Z,41.10
2018-09-20T11:17:56.429Z,40.20
2018-09-20T11:21:01.001Z,40.00
2018-09-20T11:24:05.571Z,40.30
2018-09-20T11:27:09.570Z,40.10
2018-09-20T11:30:13.857Z,39.50
2018-09-20T11:33:17.789Z,39.50
2018-09-20T11:36:22.296Z,39.70
2018-09-20T11:39:26.657Z,39.70
2018-09-20T11:42:31.016Z,39.60
2018-09-20T11:45:35.312Z,39.70
2018-09-20T11:48:39.401Z,39.70
2018-09-20T11:51:43.688Z,38.70
2018-09-20T11:54:47.549Z,38.90
2018-09-20T11:57:52.002Z,39.30
2018-09-20T12:00:56.374Z,39.10
2018-09-20T12:04:00.582Z,38.70
2018-09-20T12:07:05.081Z,38.60
2018-09-20T12:10:09.277Z,37.90
2018-09-20T12:13:14.429Z,37.80
2018-09-20T12:16:19.045Z,37.30
2018-09-20T12:19:23.342Z,37.10
2018-09-20T12:22:27.430Z,37.10
2018-09-20T12:25:31.782Z,37.40
2018-09-20T12:28:35.813Z,37.40
2018-09-20T12:31:40.016Z,37.50
2018-09-20T12:34:44.378Z,37.40
2018-09-20T12:37:48.836Z,37.70
2018-09-20T12:40:53.214Z,37.80
2018-09-20T12:43:57.488Z,37.90
2018-09-20T12:47:01.791Z,38.00
2018-09-20T12:50:06.339Z,37.80
2018-09-20T12:53:10.698Z,37.40
2018-09-20T12:56:14.628Z,36.70
2018-09-20T12:59:18.925Z,36.40
2018-09-20T13:02:23.438Z,36.10
2018-09-20T13:05:27.937Z,36.10
2018-09-20T13:08:32.122Z,36.10
2018-09-20T13:11:36.549Z,36.10
2018-09-20T13:14:40.501Z,35.80
2018-09-20T13:17:44.839Z,35.30
2018-09-20T13:20:49.146Z,35.40
2018-09-20T13:23:53.490Z,35.40
2018-09-20T13:26:57.784Z,35.00
2018-09-20T13:30:02.030Z,34.60
2018-09-20T13:33:06.057Z,34.30
2018-09-20T13:36:10.048Z,34.20
2018-09-20T13:39:14.026Z,33.90
2018-09-20T13:42:18.399Z,33.20
2018-09-20T13:45:22.757Z,32.70
2018-09-20T13:48:27.653Z,32.40
2018-09-20T13:51:32.347Z,31.90
2018-09-20T13:54:36.742Z,31.60
2018-09-20T13:57:41.029Z,31.40
2018-09-20T14:00:45.338Z,31.20
2018-09-20T14:03:49.745Z,30.80
2018-09-20T14:06:54.335Z,30.40
2018-09-20T14:09:58.529Z,30.40
2018-09-20T14:13:03.100Z,30.40
2018-09-20T14:16:07.898Z,30.50
2018-09-20T14:19:12.426Z,30.40
2018-09-20T14:22:16.868Z,30.30
2018-09-20T14:25:21.346Z,30.00
2018-09-20T14:28:25.583Z,29.90
2018-09-20T14:31:29.838Z,29.90
2018-09-20T14:34:34.910Z,29.90
2018-09-20T14:37:39.189Z,29.80
2018-09-20T14:40:43.406Z,29.50
2018-09-20T14:43:47.871Z,29.00
2018-09-20T14:46:52.177Z,29.00
2018-09-20T14:49:56.521Z,29.00
2018-09-20T14:53:00.728Z,28.90
2018-09-20T14:56:05.284Z,28.80
2018-09-20T14:59:09.337Z,28.60
2018-09-20T15:02:13.876Z,28.50
2018-09-20T15:05:17.786Z,28.50
2018-09-20T15:08:23.391Z,28.50
2018-09-20T15:11:27.711Z,28.50
2018-09-20T15:14:32.131Z,28.50
2018-09-20T15:17:36.229Z,28.50
2018-09-20T15:20:40.445Z,28.50
2018-09-20T15:23:44.788Z,28.50
2018-09-20T15:26:49.050Z,28.40
2018-09-20T15:29:52.991Z,28.30
2018-09-20T15:32:57.293Z,28.20
2018-09-20T15:36:01.546Z,28.20
2018-09-20T15:39:08.778Z,28.20
2018-09-20T15:42:12.977Z,28.10
2018-09-20T15:45:17.265Z,28.00
2018-09-20T15:48:21.717Z,28.00
2018-09-20T15:51:25.708Z,28.10
2018-09-20T15:54:29.958Z,28.20
2018-09-20T15:57:34.099Z,28.10
2018-09-20T16:00:38.030Z,28.10
2018-09-20T16:03:41.931Z,28.00
2018-09-20T16:06:45.830Z,28.10
2018-09-20T16:09:50.817Z,28.10
2018-09-20T16:12:54.797Z,28.10
2018-09-20T16:15:59.205Z,28.00
2018-09-20T16:19:03.331Z,27.90
2018-09-20T16:22:07.485Z,27.80
2018-09-20T16:25:11.805Z,27.80
2018-09-20T16:28:25.009Z,27.60
2018-09-20T16:31:53.724Z,27.40
2018-09-20T16:35:10.844Z,27.20
2018-09-20T16:38:23.094Z,27.20
2018-09-20T16:41:33.181Z,27.10
2018-09-20T16:44:37.522Z,27.10
2018-09-20T16:47:41.783Z,27.00
2018-09-20T16:50:46.186Z,26.90
2018-09-20T16:53:50.645Z,26.80
2018-09-20T16:56:54.860Z,26.80
2018-09-20T16:59:59.255Z,26.70
2018-09-20T17:03:03.505Z,26.60
2018-09-20T17:06:07.659Z,26.60
2018-09-20T17:09:12.021Z,26.50
2018-09-20T17:12:16.400Z,26.40
2018-09-20T17:15:20.463Z,26.40
2018-09-20T17:18:24.946Z,26.40
2018-09-20T17:21:29.294Z,26.40
2018-09-20T17:24:33.493Z,26.30
2018-09-20T17:27:38.000Z,26.20
2018-09-20T17:30:42.331Z,26.10
2018-09-20T17:33:49.754Z,26.00
2018-09-20T17:36:54.657Z,25.90
2018-09-20T17:40:00.311Z,25.80
2018-09-20T17:43:07.522Z,25.70
2018-09-20T17:46:12.115Z,25.60
2018-09-20T17:49:16.418Z,25.50
2018-09-20T17:52:22.513Z,25.40
2018-09-20T17:55:27.087Z,25.20
2018-09-20T17:58:31.653Z,25.10
2018-09-20T18:01:35.700Z,25.10
2018-09-20T18:04:39.817Z,24.90
2018-09-20T18:07:43.774Z,24.80
2018-09-20T18:10:47.735Z,24.60
2018-09-20T18:13:51.867Z,24.60
2018-09-20T18:16:55.874Z,24.50
2018-09-20T18:19:59.833Z,24.40
2018-09-20T18:23:04.093Z,24.40
2018-09-20T18:26:08.063Z,24.30
2018-09-20T18:29:11.976Z,24.20
2018-09-20T18:32:15.951Z,24.20
2018-09-20T18:35:19.995Z,24.10
2018-09-20T18:38:24.141Z,24.00
2018-09-20T18:41:28.454Z,24.00
2018-09-20T18:44:32.938Z,23.90
2018-09-20T18:47:37.233Z,23.90
2018-09-20T18:50:41.498Z,23.80
2018-09-20T18:53:45.666Z,23.80
2018-09-20T18:56:49.986Z,23.80
2018-09-20T18:59:54.424Z,23.70
2018-09-20T19:02:58.739Z,23.70
2018-09-20T19:06:31.229Z,23.50
2018-09-20T19:09:36.124Z,23.50
2018-09-20T19:12:40.389Z,23.50
2018-09-20T19:15:44.841Z,23.40
2018-09-20T19:18:49.069Z,23.30
2018-09-20T19:21:53.255Z,23.20
2018-09-20T19:24:57.592Z,23.20
2018-09-20T19:28:01.778Z,23.10
2018-09-20T19:31:06.421Z,23.00
2018-09-20T19:34:10.793Z,23.00
2018-09-20T19:37:14.754Z,22.80
2018-09-20T19:40:19.069Z,22.80
2018-09-20T19:43:30.081Z,22.80
2018-09-20T19:46:34.463Z,22.60
2018-09-20T19:49:38.687Z,22.50
2018-09-20T19:52:42.910Z,22.50
2018-09-20T19:55:47.251Z,22.40
2018-09-20T19:58:51.677Z,22.40
2018-09-20T20:01:55.807Z,22.40
2018-09-20T20:04:59.971Z,22.40
2018-09-20T20:08:04.550Z,22.30
2018-09-20T20:11:08.844Z,22.20
2018-09-20T20:14:13.179Z,22.10
2018-09-20T20:17:17.514Z,22.10
2018-09-20T20:20:21.992Z,22.10
2018-09-20T20:23:25.896Z,22.10
2018-09-20T20:26:30.264Z,22.10
2018-09-20T20:29:34.574Z,22.10
2018-09-20T20:32:38.921Z,22.00
2018-09-20T20:35:43.334Z,22.00
2018-09-20T20:38:48.077Z,21.90
2018-09-20T20:41:52.603Z,21.90
2018-09-20T20:44:57.138Z,21.90
2018-09-20T20:48:01.666Z,21.90
2018-09-20T20:51:06.038Z,21.80
2018-09-20T20:54:10.556Z,21.80
2018-09-20T20:57:14.851Z,21.70
2018-09-20T21:00:19.233Z,21.60
2018-09-20T21:03:23.523Z,21.60
2018-09-20T21:06:27.782Z,21.50
2018-09-20T21:09:31.941Z,21.50
2018-09-20T21:12:36.290Z,21.50
2018-09-20T21:15:40.611Z,21.40
2018-09-20T21:18:45.113Z,21.40
2018-09-20T21:21:49.680Z,21.40
2018-09-20T21:24:53.925Z,21.30
2018-09-20T21:27:58.191Z,21.20
2018-09-20T21:31:02.431Z,21.20
2018-09-20T21:34:07.075Z,21.20
2018-09-20T21:37:11.726Z,21.10
2018-09-20T21:40:16.170Z,21.00
2018-09-20T21:43:20.325Z,21.00
2018-09-20T21:46:24.768Z,21.00
2018-09-20T21:49:28.782Z,20.90
2018-09-20T21:52:33.086Z,20.90
2018-09-20T21:55:37.426Z,20.90
2018-09-20T21:58:41.943Z,20.80
2018-09-20T22:01:51.146Z,20.80
2018-09-20T22:04:55.384Z,20.80
2018-09-20T22:07:59.651Z,20.70
2018-09-20T22:11:04.138Z,20.70
2018-09-20T22:14:08.147Z,20.70
2018-09-20T22:17:12.523Z,20.70
2018-09-20T22:20:17.027Z,20.60
2018-09-20T22:23:21.363Z,20.60
2018-09-20T22:26:25.368Z,20.50
2018-09-20T22:29:29.258Z,20.50
2018-09-20T22:32:33.783Z,20.50
2018-09-20T22:35:37.976Z,20.40
2018-09-20T22:38:42.251Z,20.40
2018-09-20T22:41:46.585Z,20.30
2018-09-20T22:44:51.243Z,20.30
2018-09-20T22:47:55.753Z,20.20
2018-09-20T22:51:00.114Z,20.20
2018-09-20T22:54:04.409Z,20.10
2018-09-20T22:57:08.744Z,20.20
2018-09-20T23:00:12.891Z,20.20
2018-09-20T23:03:17.193Z,20.10
2018-09-20T23:06:21.474Z,20.20
2018-09-20T23:09:25.748Z,20.10
2018-09-20T23:12:29.622Z,20.10
2018-09-20T23:15:34.090Z,20.20
2018-09-20T23:18:38.421Z,20.10
2018-09-20T23:21:42.908Z,20.10
2018-09-20T23:24:47.192Z,20.10
2018-09-20T23:27:51.674Z,20.10
2018-09-20T23:30:55.936Z,20.10
2018-09-20T23:34:00.234Z,20.10
2018-09-20T23:37:04.396Z,20.00
2018-09-20T23:40:08.619Z,20.00
2018-09-20T23:43:12.835Z,20.00
2018-09-20T23:46:17.161Z,19.90
2018-09-20T23:49:21.405Z,19.90
2018-09-20T23:52:25.725Z,19.80
2018-09-20T23:55:30.047Z,19.80
2018-09-20T23:58:34.641Z,19.80
